createdAt,value
2019-05-23T00:01:18.489Z,49.29
2019-05-23T00:04:17.743Z,49.56
2019-05-23T00:07:12.355Z,50.17
2019-05-23T00:10:03.467Z,50.15
2019-05-23T00:12:54.027Z,50.50
2019-05-23T00:15:31.593Z,50.55
2019-05-23T00:18:04.639Z,49.94
2019-05-23T00:20:36.399Z,50.65
2019-05-23T00:23:08.761Z,50.58
2019-05-23T00:25:40.468Z,50.59
2019-05-23T00:28:11.386Z,50.49
2019-05-23T00:30:47.584Z,50.46
2019-05-23T00:33:21.211Z,50.69
2019-05-23T00:35:53.041Z,50.31
2019-05-23T00:38:23.668Z,50.47
2019-05-23T00:40:55.258Z,50.72
2019-05-23T00:43:27.560Z,50.78
2019-05-23T00:46:00.092Z,50.76
2019-05-23T00:48:31.566Z,50.54
2019-05-23T00:51:05.378Z,50.32
2019-05-23T00:53:36.768Z,50.51
2019-05-23T00:56:09.529Z,50.58
2019-05-23T00:58:40.964Z,50.82
2019-05-23T01:01:13.526Z,50.16
2019-05-23T01:03:43.813Z,50.17
2019-05-23T01:06:15.493Z,50.38
2019-05-23T01:08:46.383Z,50.77
2019-05-23T01:11:17.385Z,50.40
2019-05-23T01:13:47.816Z,49.97
2019-05-23T01:16:21.438Z,50.16
2019-05-23T01:18:52.010Z,50.11
2019-05-23T01:21:46.235Z,50.51
2019-05-23T01:24:25.495Z,50.83
2019-05-23T01:26:56.467Z,50.65
2019-05-23T01:29:37.402Z,49.91
2019-05-23T01:32:09.516Z,50.56
2019-05-23T01:34:39.956Z,49.88
2019-05-23T01:37:10.585Z,49.30
2019-05-23T01:39:41.168Z,49.31
2019-05-23T01:42:11.951Z,48.61
2019-05-23T01:44:42.678Z,48.60
2019-05-23T01:47:15.393Z,48.71
2019-05-23T01:49:45.902Z,48.94
2019-05-23T01:52:20.341Z,48.44
2019-05-23T01:54:50.759Z,48.42
2019-05-23T01:57:23.077Z,48.70
2019-05-23T02:00:08.122Z,49.24
2019-05-23T02:02:28.197Z,49.94
2019-05-23T02:04:59.229Z,50.15
2019-05-23T02:07:31.625Z,50.66
2019-05-23T02:10:01.878Z,50.79
2019-05-23T02:12:34.387Z,50.85
2019-05-23T02:15:05.398Z,51.11
2019-05-23T02:17:36.357Z,51.22
2019-05-23T02:20:07.890Z,51.34
2019-05-23T02:22:40.536Z,51.75
2019-05-23T02:25:12.914Z,51.58
2019-05-23T02:27:44.399Z,51.49
2019-05-23T02:30:33.313Z,51.49
2019-05-23T02:32:51.148Z,51.38
2019-05-23T02:35:21.416Z,51.19
2019-05-23T02:38:11.629Z,51.46
2019-05-23T02:41:13.112Z,51.33
2019-05-23T02:43:49.086Z,51.81
2019-05-23T02:46:34.549Z,51.76
2019-05-23T02:49:09.076Z,52.32
2019-05-23T02:51:40.425Z,52.07
2019-05-23T02:54:15.281Z,52.03
2019-05-23T02:56:46.030Z,51.51
2019-05-23T02:59:48.168Z,50.87
2019-05-23T03:02:58.767Z,51.88
2019-05-23T03:05:31.273Z,51.90
2019-05-23T03:08:07.994Z,51.85
2019-05-23T03:10:58.596Z,51.87
2019-05-23T03:13:32.497Z,51.67
2019-05-23T03:16:03.926Z,51.87
2019-05-23T03:18:41.580Z,51.78
2019-05-23T03:21:13.531Z,51.43
2019-05-23T03:23:44.750Z,51.27
2019-05-23T03:27:17.085Z,51.37
2019-05-23T03:29:48.081Z,51.94
2019-05-23T03:32:39.443Z,51.67
2019-05-23T03:35:15.009Z,51.92
2019-05-23T03:37:45.976Z,52.02
2019-05-23T03:40:16.808Z,51.98
2019-05-23T03:42:48.222Z,52.07
2019-05-23T03:45:23.966Z,51.56
2019-05-23T03:47:54.454Z,51.64
2019-05-23T03:50:29.283Z,51.12
2019-05-23T03:52:59.743Z,51.25
2019-05-23T03:55:32.814Z,51.47
2019-05-23T03:58:05.751Z,51.31
2019-05-23T04:00:43.830Z,51.14
2019-05-23T04:03:14.190Z,51.38
2019-05-23T04:05:45.606Z,51.16
2019-05-23T04:08:17.061Z,50.45
2019-05-23T04:10:51.609Z,51.56
2019-05-23T04:13:20.312Z,51.08
2019-05-23T04:15:50.484Z,51.01
2019-05-23T04:18:20.998Z,50.56
2019-05-23T04:20:51.636Z,50.46
2019-05-23T04:23:22.279Z,50.13
2019-05-23T04:25:52.502Z,49.68
2019-05-23T04:28:24.153Z,49.18
2019-05-23T04:30:54.580Z,49.46
2019-05-23T04:33:28.592Z,49.68
2019-05-23T04:35:58.923Z,50.23
2019-05-23T04:38:30.653Z,50.23
2019-05-23T04:41:01.102Z,50.65
2019-05-23T04:43:32.584Z,50.54
2019-05-23T04:46:03.205Z,50.69
2019-05-23T04:48:33.448Z,50.65
2019-05-23T04:51:06.910Z,50.45
2019-05-23T04:53:41.246Z,51.05
2019-05-23T04:56:14.327Z,50.96
2019-05-23T04:58:45.808Z,49.95
2019-05-23T05:01:17.637Z,50.28
2019-05-23T05:03:49.424Z,50.60
2019-05-23T05:06:20.296Z,50.39
2019-05-23T05:08:54.572Z,50.42
2019-05-23T05:11:24.714Z,49.72
2019-05-23T05:13:59.024Z,49.58
2019-05-23T05:16:29.567Z,49.07
2019-05-23T05:18:59.952Z,49.11
2019-05-23T05:21:30.128Z,49.24
2019-05-23T05:24:00.974Z,49.59
2019-05-23T05:26:31.424Z,48.68
2019-05-23T05:29:01.602Z,48.54
2019-05-23T05:31:33.842Z,48.85
2019-05-23T05:34:05.806Z,49.88
2019-05-23T05:36:41.374Z,49.15
2019-05-23T05:39:12.997Z,48.90
2019-05-23T05:41:43.193Z,48.83
2019-05-23T05:44:14.460Z,48.87
2019-05-23T05:46:45.734Z,48.60
2019-05-23T05:49:15.906Z,49.56
2019-05-23T05:51:48.078Z,49.85
2019-05-23T05:54:20.402Z,49.22
2019-05-23T05:56:51.040Z,47.76
2019-05-23T05:59:23.522Z,48.68
2019-05-23T06:01:54.574Z,48.79
2019-05-23T06:04:27.231Z,48.75
2019-05-23T06:07:29.052Z,48.07
2019-05-23T06:10:03.561Z,47.48
2019-05-23T06:12:33.969Z,47.49
2019-05-23T06:15:05.097Z,47.60
2019-05-23T06:17:36.458Z,47.03
2019-05-23T06:20:09.227Z,46.90
2019-05-23T06:22:40.635Z,47.53
2019-05-23T06:25:11.967Z,47.28
2019-05-23T06:27:43.040Z,47.02
2019-05-23T06:30:15.622Z,46.67
2019-05-23T06:32:48.775Z,46.99
2019-05-23T06:35:21.345Z,46.82
2019-05-23T06:37:51.958Z,46.70
2019-05-23T06:40:23.223Z,46.30
2019-05-23T06:42:53.601Z,46.37
2019-05-23T06:45:24.935Z,45.57
2019-05-23T06:47:55.927Z,45.48
2019-05-23T06:50:26.817Z,44.92
2019-05-23T06:52:58.589Z,44.89
2019-05-23T06:55:28.767Z,44.92
2019-05-23T06:57:59.026Z,43.13
2019-05-23T07:00:29.987Z,43.39
2019-05-23T07:03:01.801Z,43.03
2019-05-23T07:05:35.475Z,43.12
2019-05-23T07:08:06.087Z,42.07
2019-05-23T07:10:39.365Z,42.40
2019-05-23T07:13:09.746Z,42.25
2019-05-23T07:15:40.055Z,41.85
2019-05-23T07:18:10.270Z,41.40
2019-05-23T07:20:40.504Z,41.81
2019-05-23T07:23:13.034Z,40.97
2019-05-23T07:25:43.335Z,41.40
2019-05-23T07:28:13.498Z,40.38
2019-05-23T07:30:43.762Z,41.60
2019-05-23T07:33:14.795Z,42.42
2019-05-23T07:35:45.324Z,41.92
2019-05-23T07:38:15.565Z,41.26
2019-05-23T07:40:46.754Z,42.21
2019-05-23T07:43:17.331Z,40.45
2019-05-23T07:45:57.693Z,39.42
2019-05-23T07:48:28.880Z,39.42
2019-05-23T07:51:06.928Z,41.05
2019-05-23T07:53:46.501Z,41.41
2019-05-23T07:56:18.456Z,40.02
2019-05-23T07:58:49.095Z,39.20
2019-05-23T08:01:22.311Z,40.01
2019-05-23T08:03:53.054Z,38.86
2019-05-23T08:06:24.873Z,39.46
2019-05-23T08:08:55.326Z,39.27
2019-05-23T08:11:26.005Z,38.44
2019-05-23T08:13:56.970Z,38.83
2019-05-23T08:16:30.098Z,38.34
2019-05-23T08:19:00.625Z,39.04
2019-05-23T08:21:32.159Z,38.98
2019-05-23T08:24:02.438Z,38.28
2019-05-23T08:26:33.982Z,37.31
2019-05-23T08:29:24.712Z,36.97
2019-05-23T08:31:36.851Z,37.40
2019-05-23T08:34:07.364Z,38.31
2019-05-23T08:36:39.364Z,39.30
2019-05-23T08:39:10.630Z,38.31
2019-05-23T08:41:41.190Z,37.16
2019-05-23T08:44:11.953Z,37.85
2019-05-23T08:46:43.706Z,36.86
2019-05-23T08:49:14.342Z,37.84
2019-05-23T08:51:45.822Z,37.03
2019-05-23T08:54:17.608Z,37.41
2019-05-23T08:56:48.490Z,38.10
2019-05-23T08:59:18.663Z,37.93
2019-05-23T09:01:48.949Z,36.08
2019-05-23T09:04:19.500Z,36.37
2019-05-23T09:06:50.933Z,35.09
2019-05-23T09:09:29.523Z,35.87
2019-05-23T09:11:53.241Z,34.41
2019-05-23T09:14:23.803Z,34.40
2019-05-23T09:16:54.808Z,33.44
2019-05-23T09:19:24.960Z,34.41
2019-05-23T09:21:57.989Z,33.92
2019-05-23T09:24:27.611Z,33.72
2019-05-23T09:26:58.800Z,33.22
2019-05-23T09:29:29.264Z,33.81
2019-05-23T09:31:59.610Z,32.40
2019-05-23T09:34:30.688Z,32.97
2019-05-23T09:37:03.515Z,33.60
2019-05-23T09:39:36.807Z,32.41
2019-05-23T09:42:07.010Z,31.46
2019-05-23T09:44:37.383Z,31.11
2019-05-23T09:47:08.191Z,32.06
2019-05-23T09:49:39.556Z,32.34
2019-05-23T09:52:12.699Z,29.61
2019-05-23T09:54:44.344Z,31.19
2019-05-23T09:57:15.557Z,29.27
2019-05-23T09:59:45.716Z,30.77
2019-05-23T10:02:15.928Z,29.48
2019-05-23T10:04:48.116Z,30.80
2019-05-23T10:07:19.286Z,30.16
2019-05-23T10:09:51.012Z,29.53
2019-05-23T10:12:22.575Z,27.58
2019-05-23T10:14:53.020Z,28.17
2019-05-23T10:17:23.692Z,29.83
2019-05-23T10:19:53.979Z,28.09
2019-05-23T10:22:24.240Z,28.39
2019-05-23T10:24:54.418Z,28.31
2019-05-23T10:27:26.671Z,28.37
2019-05-23T10:29:56.884Z,26.57
2019-05-23T10:32:27.067Z,27.34
2019-05-23T10:34:57.234Z,28.33
2019-05-23T10:37:28.062Z,27.59
2019-05-23T10:39:58.469Z,27.60
2019-05-23T10:42:30.163Z,26.34
2019-05-23T10:45:00.438Z,27.74
2019-05-23T10:47:31.436Z,27.61
2019-05-23T10:50:07.617Z,26.99
2019-05-23T10:52:34.687Z,27.24
2019-05-23T10:55:06.582Z,25.84
2019-05-23T10:57:37.954Z,26.28
2019-05-23T11:00:10.879Z,25.79
2019-05-23T11:02:43.215Z,26.76
2019-05-23T11:05:14.439Z,27.30
2019-05-23T11:07:45.334Z,28.72
2019-05-23T11:10:17.168Z,26.17
2019-05-23T11:12:48.333Z,26.94
2019-05-23T11:15:19.500Z,26.06
2019-05-23T11:17:53.538Z,25.28
2019-05-23T11:20:22.753Z,26.08
2019-05-23T11:22:52.999Z,26.60
2019-05-23T11:25:24.542Z,24.93
2019-05-23T11:27:55.783Z,24.81
2019-05-23T11:30:32.030Z,25.28
2019-05-23T11:33:02.567Z,25.51
2019-05-23T11:35:32.895Z,25.14
2019-05-23T11:38:03.604Z,26.49
2019-05-23T11:40:34.053Z,26.49
2019-05-23T11:43:05.833Z,26.23
2019-05-23T11:45:46.047Z,26.23
2019-05-23T11:48:16.188Z,28.45
2019-05-23T11:50:46.925Z,25.90
2019-05-23T11:53:18.083Z,25.99
2019-05-23T11:55:53.997Z,29.15
2019-05-23T11:58:21.841Z,26.13
2019-05-23T12:01:21.206Z,25.11
2019-05-23T12:03:56.639Z,26.15
2019-05-23T12:06:29.832Z,25.68
2019-05-23T12:09:00.065Z,26.02
2019-05-23T12:11:35.525Z,26.46
2019-05-23T12:14:03.882Z,24.78
2019-05-23T12:16:34.114Z,26.66
2019-05-23T12:19:06.177Z,25.30
2019-05-23T12:21:36.825Z,24.32
2019-05-23T12:24:06.996Z,25.73
2019-05-23T12:26:37.165Z,24.67
2019-05-23T12:29:07.358Z,24.45
2019-05-23T12:31:38.251Z,23.25
2019-05-23T12:34:10.288Z,23.38
2019-05-23T12:36:41.013Z,22.68
2019-05-23T12:39:11.663Z,23.15
2019-05-23T12:41:43.652Z,22.55
2019-05-23T12:44:17.561Z,25.56
2019-05-23T12:46:47.270Z,24.45
2019-05-23T12:49:40.422Z,22.76
2019-05-23T12:52:11.956Z,22.26
2019-05-23T12:54:43.218Z,22.08
2019-05-23T12:57:14.152Z,22.59
2019-05-23T12:59:44.636Z,23.55
2019-05-23T13:02:22.804Z,23.59
2019-05-23T13:04:54.162Z,23.06
2019-05-23T13:07:35.583Z,22.89
2019-05-23T13:09:57.173Z,23.96
2019-05-23T13:12:27.853Z,22.62
2019-05-23T13:14:59.056Z,23.03
2019-05-23T13:17:30.659Z,21.70
2019-05-23T13:20:01.277Z,22.17
2019-05-23T13:22:32.588Z,21.52
2019-05-23T13:25:02.760Z,20.71
2019-05-23T13:27:34.577Z,19.95
2019-05-23T13:30:08.096Z,20.37
2019-05-23T13:32:38.403Z,22.10
2019-05-23T13:35:09.078Z,23.60
2019-05-23T13:37:53.248Z,21.50
2019-05-23T13:40:12.169Z,22.18
2019-05-23T13:42:42.596Z,20.79
2019-05-23T13:45:12.826Z,21.50
2019-05-23T13:47:43.910Z,21.45
2019-05-23T13:50:16.923Z,21.06
2019-05-23T13:52:48.157Z,22.01
2019-05-23T13:55:18.716Z,21.61
2019-05-23T13:57:49.849Z,22.45
2019-05-23T14:00:22.711Z,23.78
2019-05-23T14:02:53.124Z,22.94
2019-05-23T14:05:25.036Z,23.53
2019-05-23T14:08:10.775Z,21.07
2019-05-23T14:10:28.520Z,23.00
2019-05-23T14:12:58.653Z,23.64
2019-05-23T14:15:35.144Z,24.96
2019-05-23T14:18:05.363Z,24.19
2019-05-23T14:20:36.931Z,24.40
2019-05-23T14:23:27.508Z,25.35
2019-05-23T14:25:58.393Z,25.18
2019-05-23T14:28:30.413Z,20.06
2019-05-23T14:31:06.489Z,20.12
2019-05-23T14:33:44.805Z,18.76
2019-05-23T14:36:23.131Z,19.44
2019-05-23T14:38:55.140Z,21.43
2019-05-23T14:41:43.766Z,22.83
2019-05-23T14:43:59.585Z,21.18
2019-05-23T14:46:33.302Z,21.98
2019-05-23T14:49:11.504Z,21.37
2019-05-23T14:51:49.338Z,20.43
2019-05-23T14:54:26.015Z,17.41
2019-05-23T14:56:56.608Z,19.09
2019-05-23T14:59:28.480Z,20.05
2019-05-23T15:01:58.700Z,19.22
2019-05-23T15:04:29.744Z,19.37
2019-05-23T15:07:00.385Z,19.18
2019-05-23T15:09:30.502Z,18.03
2019-05-23T15:12:00.856Z,17.23
2019-05-23T15:14:31.519Z,16.87
2019-05-23T15:17:01.671Z,18.88
2019-05-23T15:19:40.463Z,17.43
2019-05-23T15:22:03.789Z,19.38
2019-05-23T15:24:34.406Z,19.43
2019-05-23T15:27:05.312Z,17.91
2019-05-23T15:29:35.481Z,20.65
2019-05-23T15:32:06.061Z,20.09
2019-05-23T15:34:36.216Z,20.76
2019-05-23T15:37:06.393Z,20.53
2019-05-23T15:39:37.311Z,21.34
2019-05-23T15:42:08.403Z,19.31
2019-05-23T15:44:38.670Z,21.37
2019-05-23T15:47:09.040Z,21.15
2019-05-23T15:49:40.867Z,22.40
2019-05-23T15:52:46.196Z,22.36
2019-05-23T15:55:40.259Z,21.62
2019-05-23T15:58:15.196Z,22.66
2019-05-23T16:01:11.969Z,22.20
2019-05-23T16:03:47.863Z,23.04
2019-05-23T16:06:21.166Z,22.81
2019-05-23T16:08:51.531Z,22.24
2019-05-23T16:11:21.756Z,22.45
2019-05-23T16:13:52.431Z,22.67
2019-05-23T16:16:23.200Z,22.98
2019-05-23T16:18:53.858Z,23.25
2019-05-23T16:21:24.506Z,21.37
2019-05-23T16:23:54.644Z,23.88
2019-05-23T16:26:25.884Z,24.12
2019-05-23T16:28:56.538Z,23.70
2019-05-23T16:31:26.670Z,23.15
2019-05-23T16:33:56.926Z,24.25
2019-05-23T16:36:27.084Z,21.92
2019-05-23T16:38:57.339Z,22.24
2019-05-23T16:41:27.615Z,24.39
2019-05-23T16:43:58.442Z,23.12
2019-05-23T16:46:28.691Z,23.86
2019-05-23T16:48:59.060Z,23.96
2019-05-23T16:51:29.437Z,25.01
2019-05-23T16:54:01.927Z,22.93
2019-05-23T16:56:41.862Z,23.75
2019-05-23T16:59:26.557Z,22.47
2019-05-23T17:02:14.692Z,23.81
2019-05-23T17:05:08.617Z,25.22
2019-05-23T17:07:45.447Z,24.88
2019-05-23T17:10:34.178Z,25.72
2019-05-23T17:13:09.166Z,25.13
2019-05-23T17:15:54.137Z,25.39
2019-05-23T17:18:49.849Z,24.47
2019-05-23T17:21:26.913Z,23.38
2019-05-23T17:24:10.062Z,24.16
2019-05-23T17:26:54.353Z,24.49
2019-05-23T17:29:35.437Z,23.93
2019-05-23T17:32:09.041Z,25.01
2019-05-23T17:34:39.192Z,23.60
2019-05-23T17:37:11.826Z,21.24
2019-05-23T17:39:43.889Z,20.02
2019-05-23T17:42:14.603Z,21.04
2019-05-23T17:44:44.814Z,21.63
2019-05-23T17:47:15.086Z,22.29
2019-05-23T17:49:46.345Z,21.89
2019-05-23T17:52:18.423Z,23.26
2019-05-23T17:54:48.591Z,22.46
2019-05-23T17:57:19.061Z,22.63
2019-05-23T17:59:49.452Z,22.71
2019-05-23T18:02:21.778Z,20.82
2019-05-23T18:04:52.504Z,22.68
2019-05-23T18:07:24.903Z,22.84
2019-05-23T18:09:55.404Z,22.82
2019-05-23T18:12:26.116Z,23.44
2019-05-23T18:14:57.915Z,22.67
2019-05-23T18:17:28.714Z,23.41
2019-05-23T18:19:58.886Z,24.03
2019-05-23T18:22:30.748Z,23.22
2019-05-23T18:25:01.754Z,23.82
2019-05-23T18:27:33.368Z,24.15
2019-05-23T18:30:05.977Z,22.02
2019-05-23T18:32:36.953Z,23.12
2019-05-23T18:35:09.336Z,23.93
2019-05-23T18:37:40.064Z,24.16
2019-05-23T18:40:11.070Z,24.34
2019-05-23T18:42:42.441Z,24.16
2019-05-23T18:45:13.709Z,24.50
2019-05-23T18:47:43.888Z,24.64
2019-05-23T18:50:15.710Z,24.45
2019-05-23T18:52:47.753Z,24.36
2019-05-23T18:55:18.582Z,24.46
2019-05-23T18:57:49.334Z,24.90
2019-05-23T19:00:23.134Z,24.69
2019-05-23T19:02:56.596Z,24.69
2019-05-23T19:05:27.685Z,24.99
2019-05-23T19:07:59.459Z,25.42
2019-05-23T19:10:29.880Z,26.07
2019-05-23T19:13:00.808Z,25.88
2019-05-23T19:15:31.301Z,25.73
2019-05-23T19:18:01.538Z,26.36
2019-05-23T19:20:31.869Z,26.30
2019-05-23T19:23:03.178Z,26.46
2019-05-23T19:25:35.500Z,26.88
2019-05-23T19:28:07.659Z,26.47
2019-05-23T19:30:38.121Z,27.24
2019-05-23T19:33:09.296Z,27.59
2019-05-23T19:35:41.662Z,26.98
2019-05-23T19:38:12.554Z,27.20
2019-05-23T19:40:45.002Z,27.24
2019-05-23T19:43:15.769Z,27.26
2019-05-23T19:45:47.837Z,27.76
2019-05-23T19:48:19.090Z,27.75
2019-05-23T19:50:50.608Z,27.83
2019-05-23T19:53:20.874Z,27.94
2019-05-23T19:55:52.130Z,28.19
2019-05-23T19:58:24.045Z,28.04
2019-05-23T20:00:55.628Z,28.43
2019-05-23T20:03:27.578Z,28.84
2019-05-23T20:05:58.052Z,29.01
2019-05-23T20:08:28.648Z,29.03
2019-05-23T20:10:59.507Z,28.93
2019-05-23T20:13:29.760Z,29.49
2019-05-23T20:16:00.431Z,29.43
2019-05-23T20:18:31.571Z,29.52
2019-05-23T20:21:02.421Z,30.57
2019-05-23T20:23:32.590Z,29.87
2019-05-23T20:26:07.860Z,30.05
2019-05-23T20:28:39.766Z,30.12
2019-05-23T20:31:10.420Z,30.68
2019-05-23T20:33:40.857Z,30.95
2019-05-23T20:36:13.289Z,30.83
2019-05-23T20:38:44.289Z,30.50
2019-05-23T20:41:15.478Z,30.53
2019-05-23T20:43:45.625Z,30.90
2019-05-23T20:46:19.191Z,30.84
2019-05-23T20:48:49.728Z,31.17
2019-05-23T20:51:20.383Z,31.01
2019-05-23T20:53:50.858Z,31.24
2019-05-23T20:56:27.264Z,32.08
2019-05-23T20:58:57.434Z,31.35
2019-05-23T21:01:34.812Z,31.30
2019-05-23T21:04:07.000Z,31.06
2019-05-23T21:06:38.787Z,30.70
2019-05-23T21:09:10.183Z,31.14
2019-05-23T21:11:41.740Z,31.36
2019-05-23T21:14:13.346Z,31.20
2019-05-23T21:16:45.507Z,31.36
2019-05-23T21:19:17.029Z,31.01
2019-05-23T21:21:49.166Z,31.25
2019-05-23T21:24:20.546Z,31.26
2019-05-23T21:26:51.092Z,31.50
2019-05-23T21:29:22.224Z,31.74
2019-05-23T21:31:54.549Z,31.14
2019-05-23T21:34:25.432Z,31.40
2019-05-23T21:36:56.216Z,30.92
2019-05-23T21:39:28.231Z,31.16
2019-05-23T21:41:58.426Z,31.85
2019-05-23T21:44:28.572Z,31.81
2019-05-23T21:47:01.027Z,31.59
2019-05-23T21:49:32.056Z,31.74
2019-05-23T21:52:02.323Z,32.18
2019-05-23T21:54:32.489Z,32.06
2019-05-23T21:57:02.685Z,32.46
2019-05-23T21:59:34.959Z,32.20
2019-05-23T22:02:13.818Z,32.30
2019-05-23T22:04:52.557Z,32.48
2019-05-23T22:07:22.857Z,32.23
2019-05-23T22:09:53.175Z,32.19
2019-05-23T22:12:24.044Z,32.38
2019-05-23T22:14:56.642Z,32.00
2019-05-23T22:17:27.349Z,32.67
2019-05-23T22:19:58.924Z,32.58
2019-05-23T22:22:29.651Z,32.25
2019-05-23T22:24:59.906Z,31.86
2019-05-23T22:27:30.134Z,31.97
2019-05-23T22:30:00.318Z,31.84
2019-05-23T22:32:32.749Z,31.80
2019-05-23T22:35:06.538Z,32.89
2019-05-23T22:37:36.812Z,32.63
2019-05-23T22:40:09.703Z,32.98
2019-05-23T22:42:41.090Z,33.94
2019-05-23T22:45:15.111Z,34.11
2019-05-23T22:47:46.026Z,34.25
2019-05-23T22:50:16.206Z,33.83
2019-05-23T22:52:46.393Z,34.16
2019-05-23T22:55:17.823Z,33.96
2019-05-23T22:57:48.464Z,33.89
2019-05-23T23:00:26.029Z,34.47
2019-05-23T23:02:56.581Z,33.56
2019-05-23T23:05:28.512Z,33.39
2019-05-23T23:08:01.701Z,32.90
2019-05-23T23:10:33.369Z,33.54
2019-05-23T23:13:03.522Z,33.40
2019-05-23T23:15:35.425Z,33.70
2019-05-23T23:18:06.897Z,33.75
2019-05-23T23:20:37.100Z,33.59
2019-05-23T23:23:08.089Z,33.39
2019-05-23T23:25:39.585Z,32.94
2019-05-23T23:28:14.478Z,33.07
2019-05-23T23:30:46.400Z,32.62
2019-05-23T23:33:16.633Z,33.81
2019-05-23T23:35:49.316Z,34.75
2019-05-23T23:38:19.953Z,35.78
2019-05-23T23:40:50.794Z,35.96
2019-05-23T23:43:20.968Z,36.23
2019-05-23T23:46:08.906Z,36.15
2019-05-23T23:48:57.391Z,36.81
2019-05-23T23:51:45.306Z,37.00
2019-05-23T23:54:33.730Z,37.11
2019-05-23T23:57:23.095Z,38.21
2019-05-23T23:59:53.166Z,38.24
